sensor_id;sensor_type;location;lat;lon;timestamp;P1;durP1;ratioP1;P2;durP2;ratioP2
19113;SDS011;9689;51.052;13.772;2022-09-09T00:02:26;2.45;;;1.40;;
19113;SDS011;9689;51.052;13.772;2022-09-09T00:07:34;4.60;;;1.20;;
19113;SDS011;9689;51.052;13.772;2022-09-09T00:12:41;2.35;;;1.38;;
19113;SDS011;9689;51.052;13.772;2022-09-09T00:17:53;5.88;;;1.55;;
19113;SDS011;9689;51.052;13.772;2022-09-09T00:23:00;5.65;;;1.58;;
19113;SDS011;9689;51.052;13.772;2022-09-09T00:28:08;1.83;;;1.20;;
19113;SDS011;9689;51.052;13.772;2022-09-09T00:33:19;4.30;;;1.20;;
19113;SDS011;9689;51.052;13.772;2022-09-09T00:38:24;4.03;;;1.48;;
19113;SDS011;9689;51.052;13.772;2022-09-09T00:43:28;3.05;;;1.70;;
19113;SDS011;9689;51.052;13.772;2022-09-09T00:48:31;7.03;;;1.60;;
19113;SDS011;9689;51.052;13.772;2022-09-09T00:53:51;1.77;;;1.50;;
19113;SDS011;9689;51.052;13.772;2022-09-09T00:59:07;3.55;;;1.30;;
19113;SDS011;9689;51.052;13.772;2022-09-09T01:04:20;2.67;;;1.48;;
19113;SDS011;9689;51.052;13.772;2022-09-09T01:09:32;5.57;;;1.50;;
19113;SDS011;9689;51.052;13.772;2022-09-09T01:14:43;2.40;;;1.70;;
19113;SDS011;9689;51.052;13.772;2022-09-09T01:19:55;5.57;;;1.50;;
19113;SDS011;9689;51.052;13.772;2022-09-09T01:25:26;4.78;;;1.90;;
19113;SDS011;9689;51.052;13.772;2022-09-09T01:30:40;4.50;;;1.50;;
19113;SDS011;9689;51.052;13.772;2022-09-09T01:35:48;2.08;;;1.42;;
19113;SDS011;9689;51.052;13.772;2022-09-09T01:40:56;7.72;;;2.00;;
19113;SDS011;9689;51.052;13.772;2022-09-09T01:46:08;4.63;;;1.88;;
19113;SDS011;9689;51.052;13.772;2022-09-09T01:51:12;4.50;;;1.60;;
19113;SDS011;9689;51.052;13.772;2022-09-09T01:56:20;4.85;;;1.42;;
19113;SDS011;9689;51.052;13.772;2022-09-09T02:01:34;2.15;;;1.30;;
19113;SDS011;9689;51.052;13.772;2022-09-09T02:06:46;5.03;;;1.50;;
19113;SDS011;9689;51.052;13.772;2022-09-09T02:11:57;2.30;;;1.40;;
19113;SDS011;9689;51.052;13.772;2022-09-09T02:17:15;4.22;;;1.25;;
19113;SDS011;9689;51.052;13.772;2022-09-09T02:22:29;4.78;;;1.40;;
19113;SDS011;9689;51.052;13.772;2022-09-09T02:27:34;2.88;;;1.80;;
19113;SDS011;9689;51.052;13.772;2022-09-09T02:32:36;1.67;;;1.33;;
19113;SDS011;9689;51.052;13.772;2022-09-09T02:37:42;2.80;;;1.48;;
19113;SDS011;9689;51.052;13.772;2022-09-09T02:42:48;3.70;;;1.45;;
19113;SDS011;9689;51.052;13.772;2022-09-09T02:47:55;1.92;;;1.40;;
19113;SDS011;9689;51.052;13.772;2022-09-09T02:53:06;5.63;;;1.70;;
19113;SDS011;9689;51.052;13.772;2022-09-09T02:58:16;2.85;;;1.38;;
19113;SDS011;9689;51.052;13.772;2022-09-09T03:03:36;6.30;;;1.77;;
19113;SDS011;9689;51.052;13.772;2022-09-09T03:08:43;3.72;;;1.20;;
19113;SDS011;9689;51.052;13.772;2022-09-09T03:13:53;1.63;;;1.30;;
19113;SDS011;9689;51.052;13.772;2022-09-09T03:18:58;1.52;;;1.35;;
19113;SDS011;9689;51.052;13.772;2022-09-09T03:24:00;4.88;;;1.67;;
19113;SDS011;9689;51.052;13.772;2022-09-09T03:29:03;2.95;;;2.10;;
19113;SDS011;9689;51.052;13.772;2022-09-09T03:34:07;4.03;;;1.60;;
19113;SDS011;9689;51.052;13.772;2022-09-09T03:39:08;3.15;;;1.67;;
19113;SDS011;9689;51.052;13.772;2022-09-09T03:44:13;4.82;;;1.55;;
19113;SDS011;9689;51.052;13.772;2022-09-09T03:49:16;1.58;;;1.30;;
19113;SDS011;9689;51.052;13.772;2022-09-09T03:54:17;5.72;;;1.40;;
19113;SDS011;9689;51.052;13.772;2022-09-09T03:59:19;1.90;;;1.30;;
19113;SDS011;9689;51.052;13.772;2022-09-09T04:04:21;8.73;;;1.65;;
19113;SDS011;9689;51.052;13.772;2022-09-09T04:09:22;3.65;;;1.48;;
19113;SDS011;9689;51.052;13.772;2022-09-09T04:14:24;2.38;;;1.77;;
19113;SDS011;9689;51.052;13.772;2022-09-09T04:19:30;8.07;;;1.70;;
19113;SDS011;9689;51.052;13.772;2022-09-09T04:24:30;4.18;;;1.75;;
19113;SDS011;9689;51.052;13.772;2022-09-09T04:29:32;11.43;;;2.03;;
19113;SDS011;9689;51.052;13.772;2022-09-09T04:34:35;3.08;;;1.65;;
19113;SDS011;9689;51.052;13.772;2022-09-09T04:39:36;5.05;;;1.52;;
19113;SDS011;9689;51.052;13.772;2022-09-09T04:44:38;3.60;;;1.95;;
19113;SDS011;9689;51.052;13.772;2022-09-09T04:49:41;9.57;;;1.98;;
19113;SDS011;9689;51.052;13.772;2022-09-09T04:54:42;5.90;;;1.70;;
19113;SDS011;9689;51.052;13.772;2022-09-09T04:59:44;3.95;;;2.55;;
19113;SDS011;9689;51.052;13.772;2022-09-09T05:04:46;2.15;;;1.40;;
19113;SDS011;9689;51.052;13.772;2022-09-09T05:09:48;3.33;;;1.92;;
19113;SDS011;9689;51.052;13.772;2022-09-09T05:14:50;4.00;;;1.77;;
19113;SDS011;9689;51.052;13.772;2022-09-09T05:19:52;8.60;;;1.70;;
19113;SDS011;9689;51.052;13.772;2022-09-09T05:24:52;3.95;;;2.05;;
19113;SDS011;9689;51.052;13.772;2022-09-09T05:29:54;5.68;;;1.98;;
19113;SDS011;9689;51.052;13.772;2022-09-09T05:34:57;2.50;;;1.52;;
19113;SDS011;9689;51.052;13.772;2022-09-09T05:39:58;8.80;;;1.55;;
19113;SDS011;9689;51.052;13.772;2022-09-09T05:45:00;3.13;;;1.70;;
19113;SDS011;9689;51.052;13.772;2022-09-09T05:50:02;6.97;;;2.20;;
19113;SDS011;9689;51.052;13.772;2022-09-09T05:55:04;4.35;;;1.92;;
19113;SDS011;9689;51.052;13.772;2022-09-09T06:00:06;6.35;;;2.15;;
19113;SDS011;9689;51.052;13.772;2022-09-09T06:05:13;3.88;;;1.58;;
19113;SDS011;9689;51.052;13.772;2022-09-09T06:10:14;4.05;;;1.70;;
19113;SDS011;9689;51.052;13.772;2022-09-09T06:15:15;2.83;;;1.48;;
19113;SDS011;9689;51.052;13.772;2022-09-09T06:20:17;2.75;;;1.40;;
19113;SDS011;9689;51.052;13.772;2022-09-09T06:25:19;9.15;;;1.65;;
19113;SDS011;9689;51.052;13.772;2022-09-09T06:30:20;5.25;;;1.95;;
19113;SDS011;9689;51.052;13.772;2022-09-09T06:35:22;5.38;;;2.08;;
19113;SDS011;9689;51.052;13.772;2022-09-09T06:40:23;3.45;;;1.52;;
19113;SDS011;9689;51.052;13.772;2022-09-09T06:45:25;11.43;;;2.05;;
19113;SDS011;9689;51.052;13.772;2022-09-09T06:50:31;6.22;;;1.80;;
19113;SDS011;9689;51.052;13.772;2022-09-09T06:55:31;4.07;;;1.90;;
19113;SDS011;9689;51.052;13.772;2022-09-09T07:00:32;5.60;;;1.60;;
19113;SDS011;9689;51.052;13.772;2022-09-09T07:05:35;5.53;;;1.70;;
19113;SDS011;9689;51.052;13.772;2022-09-09T07:10:36;15.60;;;2.17;;
19113;SDS011;9689;51.052;13.772;2022-09-09T07:15:37;4.35;;;1.83;;
19113;SDS011;9689;51.052;13.772;2022-09-09T07:20:39;5.88;;;1.52;;
19113;SDS011;9689;51.052;13.772;2022-09-09T07:25:44;2.38;;;1.33;;
19113;SDS011;9689;51.052;13.772;2022-09-09T07:30:52;2.88;;;1.73;;
19113;SDS011;9689;51.052;13.772;2022-09-09T07:36:01;5.30;;;1.95;;
19113;SDS011;9689;51.052;13.772;2022-09-09T07:41:04;3.95;;;1.52;;
19113;SDS011;9689;51.052;13.772;2022-09-09T07:46:08;3.05;;;1.48;;
19113;SDS011;9689;51.052;13.772;2022-09-09T07:51:11;4.93;;;1.23;;
19113;SDS011;9689;51.052;13.772;2022-09-09T07:56:17;2.42;;;1.15;;
19113;SDS011;9689;51.052;13.772;2022-09-09T08:01:19;1.38;;;1.10;;
19113;SDS011;9689;51.052;13.772;2022-09-09T08:06:23;3.08;;;1.10;;
19113;SDS011;9689;51.052;13.772;2022-09-09T08:11:24;2.10;;;1.25;;
19113;SDS011;9689;51.052;13.772;2022-09-09T08:16:28;3.53;;;1.10;;
19113;SDS011;9689;51.052;13.772;2022-09-09T08:21:33;2.05;;;1.20;;
19113;SDS011;9689;51.052;13.772;2022-09-09T08:26:37;1.65;;;1.15;;
19113;SDS011;9689;51.052;13.772;2022-09-09T08:31:39;3.55;;;1.50;;
19113;SDS011;9689;51.052;13.772;2022-09-09T08:36:44;4.47;;;1.58;;
19113;SDS011;9689;51.052;13.772;2022-09-09T08:41:50;5.90;;;1.63;;
19113;SDS011;9689;51.052;13.772;2022-09-09T08:47:14;3.08;;;1.50;;
19113;SDS011;9689;51.052;13.772;2022-09-09T08:52:25;4.38;;;1.50;;
19113;SDS011;9689;51.052;13.772;2022-09-09T08:57:30;10.15;;;1.63;;
19113;SDS011;9689;51.052;13.772;2022-09-09T09:02:32;3.13;;;1.40;;
19113;SDS011;9689;51.052;13.772;2022-09-09T09:07:50;4.57;;;1.52;;
19113;SDS011;9689;51.052;13.772;2022-09-09T09:13:02;3.63;;;1.75;;
19113;SDS011;9689;51.052;13.772;2022-09-09T09:18:04;3.45;;;1.10;;
19113;SDS011;9689;51.052;13.772;2022-09-09T09:23:09;7.75;;;1.58;;
19113;SDS011;9689;51.052;13.772;2022-09-09T09:28:21;8.30;;;1.80;;
19113;SDS011;9689;51.052;13.772;2022-09-09T09:33:32;4.97;;;1.70;;
19113;SDS011;9689;51.052;13.772;2022-09-09T09:38:51;4.32;;;1.50;;
19113;SDS011;9689;51.052;13.772;2022-09-09T09:44:26;14.13;;;1.30;;
19113;SDS011;9689;51.052;13.772;2022-09-09T09:49:35;11.02;;;1.50;;
19113;SDS011;9689;51.052;13.772;2022-09-09T09:54:38;3.90;;;1.50;;
19113;SDS011;9689;51.052;13.772;2022-09-09T09:59:42;4.82;;;1.52;;
19113;SDS011;9689;51.052;13.772;2022-09-09T10:04:59;3.33;;;1.45;;
19113;SDS011;9689;51.052;13.772;2022-09-09T10:10:03;4.10;;;1.15;;
19113;SDS011;9689;51.052;13.772;2022-09-09T10:15:07;10.00;;;1.08;;
19113;SDS011;9689;51.052;13.772;2022-09-09T10:20:27;4.65;;;0.85;;
19113;SDS011;9689;51.052;13.772;2022-09-09T10:25:40;3.60;;;1.00;;
19113;SDS011;9689;51.052;13.772;2022-09-09T10:30:57;5.40;;;1.17;;
19113;SDS011;9689;51.052;13.772;2022-09-09T10:36:11;8.20;;;1.73;;
19113;SDS011;9689;51.052;13.772;2022-09-09T10:41:19;3.80;;;1.40;;
19113;SDS011;9689;51.052;13.772;2022-09-09T10:46:36;5.07;;;0.90;;
19113;SDS011;9689;51.052;13.772;2022-09-09T10:51:54;5.85;;;0.88;;
19113;SDS011;9689;51.052;13.772;2022-09-09T10:57:05;5.28;;;1.10;;
19113;SDS011;9689;51.052;13.772;2022-09-09T11:02:14;4.65;;;1.23;;
19113;SDS011;9689;51.052;13.772;2022-09-09T11:07:22;2.17;;;0.90;;
19113;SDS011;9689;51.052;13.772;2022-09-09T11:12:29;6.05;;;1.20;;
19113;SDS011;9689;51.052;13.772;2022-09-09T11:17:35;2.33;;;0.85;;
19113;SDS011;9689;51.052;13.772;2022-09-09T11:22:43;4.40;;;1.23;;
19113;SDS011;9689;51.052;13.772;2022-09-09T11:27:56;5.55;;;1.85;;
19113;SDS011;9689;51.052;13.772;2022-09-09T11:38:46;1.83;;;0.73;;
19113;SDS011;9689;51.052;13.772;2022-09-09T11:43:52;4.32;;;1.17;;
19113;SDS011;9689;51.052;13.772;2022-09-09T11:48:57;3.58;;;0.90;;
19113;SDS011;9689;51.052;13.772;2022-09-09T11:54:00;2.42;;;0.85;;
19113;SDS011;9689;51.052;13.772;2022-09-09T11:59:04;2.63;;;1.00;;
19113;SDS011;9689;51.052;13.772;2022-09-09T12:04:10;3.75;;;1.55;;
19113;SDS011;9689;51.052;13.772;2022-09-09T12:09:36;3.72;;;1.33;;
19113;SDS011;9689;51.052;13.772;2022-09-09T12:14:55;7.40;;;1.08;;
19113;SDS011;9689;51.052;13.772;2022-09-09T12:20:00;6.32;;;1.20;;
19113;SDS011;9689;51.052;13.772;2022-09-09T12:25:08;5.82;;;1.52;;
19113;SDS011;9689;51.052;13.772;2022-09-09T12:30:23;5.32;;;1.40;;
19113;SDS011;9689;51.052;13.772;2022-09-09T12:35:30;2.92;;;1.25;;
19113;SDS011;9689;51.052;13.772;2022-09-09T12:40:32;4.63;;;1.77;;
19113;SDS011;9689;51.052;13.772;2022-09-09T12:45:36;4.10;;;1.30;;
19113;SDS011;9689;51.052;13.772;2022-09-09T12:50:43;6.00;;;1.25;;
19113;SDS011;9689;51.052;13.772;2022-09-09T12:55:49;4.80;;;1.15;;
19113;SDS011;9689;51.052;13.772;2022-09-09T13:00:53;5.90;;;1.20;;
19113;SDS011;9689;51.052;13.772;2022-09-09T13:05:57;2.38;;;0.95;;
19113;SDS011;9689;51.052;13.772;2022-09-09T13:11:00;3.63;;;1.10;;
19113;SDS011;9689;51.052;13.772;2022-09-09T13:16:06;2.83;;;1.30;;
19113;SDS011;9689;51.052;13.772;2022-09-09T13:21:18;3.33;;;1.02;;
19113;SDS011;9689;51.052;13.772;2022-09-09T13:26:20;4.57;;;1.15;;
19113;SDS011;9689;51.052;13.772;2022-09-09T13:31:28;4.32;;;1.00;;
19113;SDS011;9689;51.052;13.772;2022-09-09T13:36:32;4.40;;;1.17;;
19113;SDS011;9689;51.052;13.772;2022-09-09T13:41:35;6.07;;;0.80;;
19113;SDS011;9689;51.052;13.772;2022-09-09T13:46:44;1.52;;;0.60;;
19113;SDS011;9689;51.052;13.772;2022-09-09T13:51:46;3.00;;;0.93;;
19113;SDS011;9689;51.052;13.772;2022-09-09T13:56:49;2.58;;;0.90;;
19113;SDS011;9689;51.052;13.772;2022-09-09T14:01:51;2.15;;;1.10;;
19113;SDS011;9689;51.052;13.772;2022-09-09T14:06:54;1.65;;;0.82;;
19113;SDS011;9689;51.052;13.772;2022-09-09T14:11:55;4.10;;;1.33;;
19113;SDS011;9689;51.052;13.772;2022-09-09T14:16:59;3.22;;;1.00;;
19113;SDS011;9689;51.052;13.772;2022-09-09T14:22:05;3.72;;;0.82;;
19113;SDS011;9689;51.052;13.772;2022-09-09T14:27:06;1.92;;;1.02;;
19113;SDS011;9689;51.052;13.772;2022-09-09T14:32:08;4.00;;;1.10;;
19113;SDS011;9689;51.052;13.772;2022-09-09T14:37:11;2.67;;;1.08;;
19113;SDS011;9689;51.052;13.772;2022-09-09T14:42:13;2.58;;;0.77;;
19113;SDS011;9689;51.052;13.772;2022-09-09T14:47:15;4.75;;;1.10;;
19113;SDS011;9689;51.052;13.772;2022-09-09T14:52:16;6.47;;;2.75;;
19113;SDS011;9689;51.052;13.772;2022-09-09T14:57:16;8.13;;;1.02;;
19113;SDS011;9689;51.052;13.772;2022-09-09T15:02:18;2.97;;;1.10;;
19113;SDS011;9689;51.052;13.772;2022-09-09T15:07:19;4.75;;;1.20;;
19113;SDS011;9689;51.052;13.772;2022-09-09T15:12:21;2.03;;;0.70;;
19113;SDS011;9689;51.052;13.772;2022-09-09T15:17:23;3.75;;;1.35;;
19113;SDS011;9689;51.052;13.772;2022-09-09T15:22:24;2.45;;;0.90;;
19113;SDS011;9689;51.052;13.772;2022-09-09T15:27:25;3.30;;;1.05;;
19113;SDS011;9689;51.052;13.772;2022-09-09T15:32:27;2.85;;;1.20;;
19113;SDS011;9689;51.052;13.772;2022-09-09T15:37:28;6.28;;;1.27;;
19113;SDS011;9689;51.052;13.772;2022-09-09T15:42:28;1.80;;;1.10;;
19113;SDS011;9689;51.052;13.772;2022-09-09T15:47:31;6.70;;;1.30;;
19113;SDS011;9689;51.052;13.772;2022-09-09T15:52:32;3.95;;;1.10;;
19113;SDS011;9689;51.052;13.772;2022-09-09T15:57:32;5.22;;;1.38;;
19113;SDS011;9689;51.052;13.772;2022-09-09T16:02:35;4.03;;;1.20;;
19113;SDS011;9689;51.052;13.772;2022-09-09T16:07:36;5.63;;;1.17;;
19113;SDS011;9689;51.052;13.772;2022-09-09T16:12:37;6.80;;;1.55;;
19113;SDS011;9689;51.052;13.772;2022-09-09T16:17:40;4.78;;;1.25;;
19113;SDS011;9689;51.052;13.772;2022-09-09T16:22:40;5.90;;;1.80;;
19113;SDS011;9689;51.052;13.772;2022-09-09T16:27:41;4.60;;;1.42;;
19113;SDS011;9689;51.052;13.772;2022-09-09T16:32:44;6.13;;;1.17;;
19113;SDS011;9689;51.052;13.772;2022-09-09T16:37:44;4.28;;;1.67;;
19113;SDS011;9689;51.052;13.772;2022-09-09T16:42:45;4.15;;;1.50;;
19113;SDS011;9689;51.052;13.772;2022-09-09T16:47:47;4.18;;;1.27;;
19113;SDS011;9689;51.052;13.772;2022-09-09T16:52:48;3.45;;;1.23;;
19113;SDS011;9689;51.052;13.772;2022-09-09T16:57:48;2.88;;;1.20;;
19113;SDS011;9689;51.052;13.772;2022-09-09T17:02:50;3.58;;;1.35;;
19113;SDS011;9689;51.052;13.772;2022-09-09T17:07:51;5.78;;;1.60;;
19113;SDS011;9689;51.052;13.772;2022-09-09T17:12:51;6.53;;;1.75;;
19113;SDS011;9689;51.052;13.772;2022-09-09T17:17:53;6.80;;;1.70;;
19113;SDS011;9689;51.052;13.772;2022-09-09T17:22:54;5.20;;;1.45;;
19113;SDS011;9689;51.052;13.772;2022-09-09T17:27:55;7.38;;;2.22;;
19113;SDS011;9689;51.052;13.772;2022-09-09T17:32:58;4.60;;;1.73;;
19113;SDS011;9689;51.052;13.772;2022-09-09T17:37:59;5.63;;;2.92;;
19113;SDS011;9689;51.052;13.772;2022-09-09T17:42:59;5.07;;;2.20;;
19113;SDS011;9689;51.052;13.772;2022-09-09T17:48:01;3.78;;;1.55;;
19113;SDS011;9689;51.052;13.772;2022-09-09T17:53:03;4.80;;;1.40;;
19113;SDS011;9689;51.052;13.772;2022-09-09T17:58:03;5.07;;;1.50;;
19113;SDS011;9689;51.052;13.772;2022-09-09T18:03:05;8.38;;;2.00;;
19113;SDS011;9689;51.052;13.772;2022-09-09T18:08:06;4.82;;;1.63;;
19113;SDS011;9689;51.052;13.772;2022-09-09T18:13:07;6.70;;;1.77;;
19113;SDS011;9689;51.052;13.772;2022-09-09T18:18:09;4.90;;;1.52;;
19113;SDS011;9689;51.052;13.772;2022-09-09T18:23:10;5.53;;;2.45;;
19113;SDS011;9689;51.052;13.772;2022-09-09T18:28:10;6.78;;;2.22;;
19113;SDS011;9689;51.052;13.772;2022-09-09T18:33:13;5.22;;;1.80;;
19113;SDS011;9689;51.052;13.772;2022-09-09T18:38:14;10.63;;;1.80;;
19113;SDS011;9689;51.052;13.772;2022-09-09T18:43:15;2.95;;;1.70;;
19113;SDS011;9689;51.052;13.772;2022-09-09T18:48:18;6.45;;;1.70;;
19113;SDS011;9689;51.052;13.772;2022-09-09T18:53:18;5.90;;;2.00;;
19113;SDS011;9689;51.052;13.772;2022-09-09T18:58:21;9.82;;;2.08;;
19113;SDS011;9689;51.052;13.772;2022-09-09T19:03:25;4.47;;;2.00;;
19113;SDS011;9689;51.052;13.772;2022-09-09T19:08:26;6.55;;;2.00;;
19113;SDS011;9689;51.052;13.772;2022-09-09T19:13:27;6.22;;;1.95;;
19113;SDS011;9689;51.052;13.772;2022-09-09T19:18:29;3.28;;;1.90;;
19113;SDS011;9689;51.052;13.772;2022-09-09T19:23:30;5.65;;;2.05;;
19113;SDS011;9689;51.052;13.772;2022-09-09T19:28:31;5.45;;;2.35;;
19113;SDS011;9689;51.052;13.772;2022-09-09T19:33:33;7.82;;;2.50;;
19113;SDS011;9689;51.052;13.772;2022-09-09T19:38:35;4.18;;;2.13;;
19113;SDS011;9689;51.052;13.772;2022-09-09T19:43:36;6.30;;;2.17;;
19113;SDS011;9689;51.052;13.772;2022-09-09T19:48:39;5.97;;;2.22;;
19113;SDS011;9689;51.052;13.772;2022-09-09T19:53:41;8.90;;;2.42;;
19113;SDS011;9689;51.052;13.772;2022-09-09T19:58:44;7.00;;;3.20;;
19113;SDS011;9689;51.052;13.772;2022-09-09T20:03:48;4.60;;;2.45;;
19113;SDS011;9689;51.052;13.772;2022-09-09T20:08:50;5.47;;;2.30;;
19113;SDS011;9689;51.052;13.772;2022-09-09T20:13:52;6.47;;;2.92;;
19113;SDS011;9689;51.052;13.772;2022-09-09T20:18:55;6.82;;;2.22;;
19113;SDS011;9689;51.052;13.772;2022-09-09T20:23:58;7.38;;;2.10;;
19113;SDS011;9689;51.052;13.772;2022-09-09T20:28:59;3.60;;;2.15;;
19113;SDS011;9689;51.052;13.772;2022-09-09T20:34:04;12.35;;;3.40;;
19113;SDS011;9689;51.052;13.772;2022-09-09T20:39:07;4.85;;;2.55;;
19113;SDS011;9689;51.052;13.772;2022-09-09T20:44:10;8.30;;;2.20;;
19113;SDS011;9689;51.052;13.772;2022-09-09T20:49:15;2.65;;;1.88;;
19113;SDS011;9689;51.052;13.772;2022-09-09T20:54:17;6.28;;;2.28;;
19113;SDS011;9689;51.052;13.772;2022-09-09T20:59:20;4.55;;;1.85;;
19113;SDS011;9689;51.052;13.772;2022-09-09T21:04:23;8.05;;;2.20;;
19113;SDS011;9689;51.052;13.772;2022-09-09T21:09:24;4.32;;;2.03;;
19113;SDS011;9689;51.052;13.772;2022-09-09T21:14:25;5.50;;;2.03;;
19113;SDS011;9689;51.052;13.772;2022-09-09T21:19:27;7.88;;;2.10;;
19113;SDS011;9689;51.052;13.772;2022-09-09T21:24:28;7.65;;;2.20;;
19113;SDS011;9689;51.052;13.772;2022-09-09T21:29:29;8.05;;;2.50;;
19113;SDS011;9689;51.052;13.772;2022-09-09T21:34:32;4.32;;;1.92;;
19113;SDS011;9689;51.052;13.772;2022-09-09T21:39:34;7.38;;;2.20;;
19113;SDS011;9689;51.052;13.772;2022-09-09T21:44:39;3.88;;;1.67;;
19113;SDS011;9689;51.052;13.772;2022-09-09T21:49:41;3.67;;;1.80;;
19113;SDS011;9689;51.052;13.772;2022-09-09T21:54:42;6.13;;;1.70;;
19113;SDS011;9689;51.052;13.772;2022-09-09T21:59:42;6.80;;;2.10;;
19113;SDS011;9689;51.052;13.772;2022-09-09T22:04:44;8.70;;;1.92;;
19113;SDS011;9689;51.052;13.772;2022-09-09T22:09:45;4.40;;;1.85;;
19113;SDS011;9689;51.052;13.772;2022-09-09T22:14:45;6.85;;;1.90;;
19113;SDS011;9689;51.052;13.772;2022-09-09T22:19:48;5.15;;;2.13;;
19113;SDS011;9689;51.052;13.772;2022-09-09T22:24:48;3.85;;;1.75;;
19113;SDS011;9689;51.052;13.772;2022-09-09T22:29:50;4.97;;;1.77;;
19113;SDS011;9689;51.052;13.772;2022-09-09T22:34:52;5.65;;;1.70;;
19113;SDS011;9689;51.052;13.772;2022-09-09T22:39:52;2.97;;;1.70;;
19113;SDS011;9689;51.052;13.772;2022-09-09T22:44:53;1.55;;;1.35;;
19113;SDS011;9689;51.052;13.772;2022-09-09T22:49:55;5.50;;;2.45;;
19113;SDS011;9689;51.052;13.772;2022-09-09T22:54:56;8.85;;;1.90;;
19113;SDS011;9689;51.052;13.772;2022-09-09T22:59:57;5.97;;;2.10;;
19113;SDS011;9689;51.052;13.772;2022-09-09T23:04:59;2.30;;;1.60;;
19113;SDS011;9689;51.052;13.772;2022-09-09T23:10:03;4.07;;;1.77;;
19113;SDS011;9689;51.052;13.772;2022-09-09T23:15:04;3.80;;;1.08;;
19113;SDS011;9689;51.052;13.772;2022-09-09T23:20:10;8.18;;;1.73;;
19113;SDS011;9689;51.052;13.772;2022-09-09T23:25:10;9.98;;;1.70;;
19113;SDS011;9689;51.052;13.772;2022-09-09T23:30:11;4.28;;;1.65;;
19113;SDS011;9689;51.052;13.772;2022-09-09T23:35:14;3.70;;;1.80;;
19113;SDS011;9689;51.052;13.772;2022-09-09T23:40:15;4.45;;;2.05;;
19113;SDS011;9689;51.052;13.772;2022-09-09T23:45:15;6.55;;;1.40;;
19113;SDS011;9689;51.052;13.772;2022-09-09T23:50:17;5.75;;;1.60;;
19113;SDS011;9689;51.052;13.772;2022-09-09T23:55:19;2.17;;;1.10;;
